This is the latest recevied weather packets stored in our database for station/object WC4PEM-12. If no packets are shown the sender has not sent any weather packets the latest 10 day(s).
| Time | Temp. | Humidity | Pressure | Rain* | Wind** | Luminosity | Snow |
|---|---|---|---|---|---|---|---|
| 1777943158 | 22.22° C | 74% | 1015.3 hPa | 0 mm | - | - | - |
| 1777942977 | 21.67° C | 74% | 1015.5 hPa | 0 mm | - | - | - |
| 1777942677 | 22.22° C | 74% | 1015.3 hPa | 0 mm | - | - | - |
| 1777942377 | 22.22° C | 74% | 1015.2 hPa | 0 mm | - | - | - |
| 1777942077 | 22.22° C | 73% | 1015.3 hPa | 0 mm | - | - | - |
| 1777941777 | 22.22° C | 73% | 1015.3 hPa | 0 mm | - | - | - |
| 1777941477 | 22.22° C | 73% | 1015.1 hPa | 0 mm | - | - | - |
| 1777941177 | 22.22° C | 72% | 1014.9 hPa | 0 mm | - | - | - |
| 1777940877 | 22.78° C | 72% | 1014.8 hPa | 0 mm | - | - | - |
| 1777940577 | 22.78° C | 72% | 1014.5 hPa | 0 mm | - | - | - |
| 1777940277 | 22.78° C | 71% | 1014.5 hPa | 0 mm | - | - | - |
| 1777939977 | 22.78° C | 70% | 1014.4 hPa | 0 mm | - | - | - |
| 1777939677 | 23.33° C | 70% | 1014.5 hPa | 0 mm | - | - | - |
| 1777939593 | 23.33° C | 70% | 1014.6 hPa | 0 mm | - | - | - |
| 1777939393 | 23.33° C | 69% | 1014.7 hPa | 0 mm | - | - | - |
| 1777939377 | 23.33° C | 70% | 1014.6 hPa | 0 mm | - | - | - |
| 1777939077 | 23.33° C | 69% | 1014.7 hPa | 0 mm | - | - | - |
| 1777938777 | 23.89° C | 69% | 1014.6 hPa | 0 mm | - | - | - |
| 1777938590 | 24.44° C | 67% | 1014.2 hPa | 0 mm | - | - | - |
| 1777938497 | 24.44° C | 68% | 1014.3 hPa | 0 mm | - | - | - |
| 1777938477 | 23.89° C | 68% | 1014.5 hPa | 0 mm | - | - | - |
| 1777938177 | 23.89° C | 68% | 1014.4 hPa | 0 mm | - | - | - |
| 1777937877 | 24.44° C | 68% | 1014.3 hPa | 0 mm | - | - | - |
| 1777937577 | 24.44° C | 67% | 1014.2 hPa | 0 mm | - | - | - |
| 1777937277 | 24.44° C | 66% | 1014.2 hPa | 0 mm | - | - | - |
* Rain latest hour (hover to see other rain measurements)
** Current wind speed in m/s (hover to see current wind gust speed)